createdAt,value
2022-09-06T00:01:35.181Z,0.80
2022-09-06T00:04:08.120Z,0.60
2022-09-06T00:06:41.566Z,1.08
2022-09-06T00:09:13.086Z,0.77
2022-09-06T00:11:45.130Z,0.65
2022-09-06T00:14:16.655Z,0.80
2022-09-06T00:16:48.602Z,0.40
2022-09-06T00:19:20.139Z,0.30
2022-09-06T00:21:52.056Z,0.60
2022-09-06T00:24:23.590Z,0.60
2022-09-06T00:26:55.445Z,0.52
2022-09-06T00:29:26.979Z,0.60
2022-09-06T00:31:59.800Z,0.50
2022-09-06T00:34:31.348Z,0.60
2022-09-06T00:37:02.886Z,0.45
2022-09-06T00:39:35.198Z,0.30
2022-09-06T00:42:07.109Z,0.40
2022-09-06T00:44:38.688Z,0.43
2022-09-06T00:47:10.512Z,0.50
2022-09-06T00:49:42.048Z,0.40
2022-09-06T00:52:13.948Z,0.60
2022-09-06T00:54:45.479Z,0.50
2022-09-06T00:57:17.355Z,0.63
2022-09-06T00:59:48.937Z,0.60
2022-09-06T01:02:21.007Z,0.55
2022-09-06T01:04:52.777Z,0.60
2022-09-06T01:07:24.619Z,0.50
2022-09-06T01:09:56.201Z,0.50
2022-09-06T01:12:28.101Z,0.40
2022-09-06T01:14:59.642Z,0.50
2022-09-06T01:17:31.198Z,0.40
2022-09-06T01:20:02.730Z,0.40
2022-09-06T01:22:34.741Z,0.40
2022-09-06T01:25:06.277Z,0.43
2022-09-06T01:27:38.147Z,0.63
2022-09-06T01:30:10.012Z,0.40
2022-09-06T01:32:41.928Z,0.40
2022-09-06T01:35:13.783Z,0.40
2022-09-06T01:37:45.296Z,0.25
2022-09-06T01:40:17.165Z,0.80
2022-09-06T01:42:48.721Z,0.45
2022-09-06T01:45:20.564Z,0.52
2022-09-06T01:47:52.122Z,0.45
2022-09-06T01:50:24.322Z,0.43
2022-09-06T01:52:56.063Z,0.47
2022-09-06T01:55:27.999Z,0.30
2022-09-06T01:57:59.527Z,0.30
2022-09-06T02:00:31.454Z,0.40
2022-09-06T02:03:03.000Z,0.32
2022-09-06T02:05:34.984Z,0.20
2022-09-06T02:08:06.519Z,0.30
2022-09-06T02:10:38.720Z,0.63
2022-09-06T02:13:10.252Z,0.20
2022-09-06T02:15:42.075Z,0.20
2022-09-06T02:18:13.595Z,0.20
2022-09-06T02:20:45.731Z,0.32
2022-09-06T02:23:17.246Z,0.50
2022-09-06T02:25:49.094Z,0.30
2022-09-06T02:28:20.722Z,0.30
2022-09-06T02:30:52.796Z,0.40
2022-09-06T02:33:24.369Z,0.32
2022-09-06T02:35:56.311Z,0.32
2022-09-06T02:38:28.010Z,0.30
2022-09-06T02:40:59.888Z,0.57
2022-09-06T02:43:31.442Z,0.35
2022-09-06T02:46:03.532Z,0.30
2022-09-06T02:48:35.134Z,0.30
2022-09-06T02:51:06.840Z,0.70
2022-09-06T02:53:38.413Z,0.30
2022-09-06T02:56:10.277Z,0.30
2022-09-06T02:58:41.840Z,0.30
2022-09-06T03:01:13.507Z,0.45
2022-09-06T03:03:45.541Z,0.52
2022-09-06T03:06:17.459Z,0.30
2022-09-06T03:08:49.028Z,0.32
2022-09-06T03:11:20.882Z,0.55
2022-09-06T03:13:52.712Z,0.30
2022-09-06T03:16:24.692Z,0.43
2022-09-06T03:18:56.291Z,0.57
2022-09-06T03:21:27.827Z,0.60
2022-09-06T03:23:59.381Z,0.32
2022-09-06T03:26:31.346Z,0.43
2022-09-06T03:29:02.865Z,0.20
2022-09-06T03:31:34.742Z,0.25
2022-09-06T03:34:10.780Z,0.50
2022-09-06T03:36:42.892Z,0.95
2022-09-06T03:39:14.457Z,0.45
2022-09-06T03:41:46.387Z,0.40
2022-09-06T03:44:17.927Z,0.45
2022-09-06T03:46:49.904Z,0.43
2022-09-06T03:49:21.418Z,0.52
2022-09-06T03:51:53.465Z,0.30
2022-09-06T03:54:25.005Z,0.38
2022-09-06T03:56:57.786Z,0.22
2022-09-06T03:59:29.315Z,0.70
2022-09-06T04:02:01.213Z,0.57
2022-09-06T04:04:33.181Z,0.65
2022-09-06T04:07:04.686Z,0.52
2022-09-06T04:09:36.656Z,0.55
2022-09-06T04:12:08.169Z,1.33
2022-09-06T04:14:40.029Z,0.40
2022-09-06T04:17:12.437Z,0.50
2022-09-06T04:19:44.302Z,0.32
2022-09-06T04:22:15.867Z,0.50
2022-09-06T04:24:47.800Z,0.45
2022-09-06T04:27:19.309Z,0.32
2022-09-06T04:29:51.166Z,0.30
2022-09-06T04:32:22.677Z,0.30
2022-09-06T04:34:54.559Z,0.70
2022-09-06T04:37:26.095Z,0.60
2022-09-06T04:39:57.920Z,0.32
2022-09-06T04:42:29.475Z,0.57
2022-09-06T04:45:01.059Z,0.40
2022-09-06T04:47:32.645Z,0.70
2022-09-06T04:50:04.179Z,0.32
2022-09-06T04:52:35.768Z,0.80
2022-09-06T04:55:07.758Z,0.65
2022-09-06T04:57:44.476Z,0.57
2022-09-06T05:00:17.662Z,0.25
2022-09-06T05:02:49.190Z,0.32
2022-09-06T05:05:21.155Z,0.68
2022-09-06T05:07:52.946Z,0.30
2022-09-06T05:10:24.873Z,0.60
2022-09-06T05:12:56.518Z,0.50
2022-09-06T05:15:28.366Z,0.35
2022-09-06T05:17:59.874Z,0.68
2022-09-06T05:20:31.863Z,0.50
2022-09-06T05:23:03.378Z,0.40
2022-09-06T05:25:35.365Z,0.35
2022-09-06T05:28:06.878Z,0.45
2022-09-06T05:30:38.767Z,0.50
2022-09-06T05:33:10.291Z,0.60
2022-09-06T05:35:42.211Z,0.50
2022-09-06T05:38:13.799Z,0.30
2022-09-06T05:40:45.905Z,0.40
2022-09-06T05:43:17.465Z,0.67
2022-09-06T05:45:49.484Z,0.60
2022-09-06T05:48:21.034Z,0.30
2022-09-06T05:50:53.016Z,0.40
2022-09-06T05:53:24.605Z,0.40
2022-09-06T05:55:56.476Z,0.45
2022-09-06T05:58:28.080Z,0.47
2022-09-06T06:01:00.029Z,0.40
2022-09-06T06:03:31.556Z,0.63
2022-09-06T06:06:03.449Z,0.40
2022-09-06T06:08:34.975Z,0.60
2022-09-06T06:11:06.823Z,0.40
2022-09-06T06:13:39.699Z,0.40
2022-09-06T06:16:11.619Z,0.50
2022-09-06T06:18:47.610Z,0.77
2022-09-06T06:21:22.099Z,0.50
2022-09-06T06:23:54.131Z,0.50
2022-09-06T06:26:25.655Z,0.40
2022-09-06T06:28:59.314Z,0.80
2022-09-06T06:31:30.949Z,0.55
2022-09-06T06:34:04.507Z,0.40
2022-09-06T06:36:36.064Z,0.65
2022-09-06T06:39:08.698Z,0.35
2022-09-06T06:41:40.221Z,0.50
2022-09-06T06:44:12.306Z,0.50
2022-09-06T06:46:43.879Z,0.83
2022-09-06T06:49:15.730Z,0.40
2022-09-06T06:51:47.279Z,0.60
2022-09-06T06:54:18.912Z,0.40
2022-09-06T06:56:50.521Z,0.60
2022-09-06T06:59:22.386Z,0.50
2022-09-06T07:01:54.040Z,0.50
2022-09-06T07:04:26.035Z,0.43
2022-09-06T07:12:41.722Z,0.70
2022-09-06T07:15:13.813Z,0.70
2022-09-06T07:17:45.322Z,0.70
2022-09-06T07:20:17.439Z,0.70
2022-09-06T07:22:49.350Z,0.63
2022-09-06T07:25:21.656Z,0.77
2022-09-06T07:27:53.315Z,0.70
2022-09-06T07:30:25.240Z,0.75
2022-09-06T07:32:56.807Z,0.70
2022-09-06T07:35:28.678Z,0.70
2022-09-06T07:38:00.264Z,0.75
2022-09-06T07:40:32.213Z,1.10
2022-09-06T07:43:03.773Z,0.93
2022-09-06T07:45:35.916Z,0.98
2022-09-06T07:48:07.455Z,0.90
2022-09-06T07:50:47.392Z,0.70
2022-09-06T07:53:30.283Z,0.80
2022-09-06T07:56:02.744Z,1.00
2022-09-06T07:58:34.372Z,1.10
2022-09-06T08:01:06.269Z,0.93
2022-09-06T08:03:37.902Z,0.85
2022-09-06T08:06:10.335Z,0.80
2022-09-06T08:08:58.321Z,0.60
2022-09-06T08:11:30.643Z,0.77
2022-09-06T08:14:03.856Z,0.70
2022-09-06T08:16:37.019Z,0.80
2022-09-06T08:19:09.960Z,0.80
2022-09-06T08:24:16.979Z,0.85
2022-09-06T08:26:50.108Z,0.80
2022-09-06T08:29:23.509Z,1.20
2022-09-06T08:31:55.145Z,1.02
2022-09-06T08:34:27.067Z,1.00
2022-09-06T08:36:58.620Z,0.90
2022-09-06T08:39:30.527Z,0.93
2022-09-06T08:42:03.006Z,1.10
2022-09-06T08:47:26.571Z,0.95
2022-09-06T08:49:58.209Z,1.23
2022-09-06T08:52:29.795Z,1.00
2022-09-06T08:55:01.347Z,1.23
2022-09-06T08:57:34.953Z,0.80
2022-09-06T09:00:11.093Z,0.93
2022-09-06T09:02:42.732Z,1.58
2022-09-06T09:05:14.666Z,0.73
2022-09-06T09:07:46.186Z,1.10
2022-09-06T09:10:18.113Z,1.20
2022-09-06T09:12:49.695Z,1.00
2022-09-06T09:15:21.608Z,1.17
2022-09-06T09:17:53.200Z,1.40
2022-09-06T09:20:25.050Z,1.23
2022-09-06T09:22:56.559Z,0.90
2022-09-06T09:25:28.515Z,0.88
2022-09-06T09:28:00.572Z,1.10
2022-09-06T09:30:47.775Z,1.40
2022-09-06T09:33:20.376Z,1.00
2022-09-06T09:35:52.656Z,1.20
2022-09-06T09:38:24.591Z,1.10
2022-09-06T09:40:56.290Z,1.20
2022-09-06T09:43:28.191Z,1.27
2022-09-06T09:45:59.741Z,1.27
2022-09-06T09:48:31.643Z,1.05
2022-09-06T09:51:03.162Z,1.30
2022-09-06T09:53:35.093Z,1.00
2022-09-06T09:56:06.648Z,1.00
2022-09-06T09:58:38.597Z,1.60
2022-09-06T10:01:10.234Z,1.23
2022-09-06T10:09:25.516Z,1.50
2022-09-06T10:11:57.043Z,1.47
2022-09-06T10:14:28.935Z,1.20
2022-09-06T10:17:00.647Z,1.40
2022-09-06T10:19:32.690Z,1.40
2022-09-06T10:22:04.202Z,1.30
2022-09-06T10:24:36.135Z,1.55
2022-09-06T10:27:08.314Z,1.70
2022-09-06T10:29:40.233Z,1.48
2022-09-06T10:32:12.037Z,1.13
2022-09-06T10:34:43.651Z,1.35
2022-09-06T10:37:15.568Z,1.45
2022-09-06T10:39:47.154Z,1.50
2022-09-06T10:42:20.159Z,1.85
2022-09-06T10:44:51.685Z,1.40
2022-09-06T10:47:23.760Z,1.48
2022-09-06T10:49:55.355Z,1.48
2022-09-06T10:52:27.167Z,1.48
2022-09-06T10:55:02.143Z,1.55
2022-09-06T11:00:27.128Z,1.63
2022-09-06T11:05:50.526Z,1.67
2022-09-06T11:11:13.605Z,1.55
2022-09-06T11:13:45.898Z,1.30
2022-09-06T11:16:17.582Z,1.65
2022-09-06T11:18:49.803Z,1.73
2022-09-06T11:21:21.391Z,1.85
2022-09-06T11:23:53.362Z,1.98
2022-09-06T11:26:24.866Z,1.45
2022-09-06T11:28:56.716Z,2.03
2022-09-06T11:34:21.101Z,1.70
2022-09-06T11:36:53.246Z,1.40
2022-09-06T11:42:16.706Z,1.88
2022-09-06T11:44:48.233Z,1.63
2022-09-06T11:47:20.115Z,2.00
2022-09-06T11:49:52.427Z,1.50
2022-09-06T11:52:24.293Z,1.58
2022-09-06T11:54:55.840Z,1.77
2022-09-06T11:57:27.874Z,1.77
2022-09-06T12:00:00.490Z,1.60
2022-09-06T12:05:07.217Z,1.67
2022-09-06T12:07:39.272Z,1.75
2022-09-06T12:10:10.794Z,1.83
2022-09-06T12:12:42.624Z,1.38
2022-09-06T12:15:14.130Z,1.67
2022-09-06T12:17:45.998Z,1.15
2022-09-06T12:20:17.520Z,1.70
2022-09-06T12:22:49.449Z,1.65
2022-09-06T12:25:21.178Z,1.88
2022-09-06T12:27:53.234Z,1.85
2022-09-06T12:30:24.766Z,1.95
2022-09-06T12:32:56.770Z,2.17
2022-09-06T12:38:20.103Z,1.52
2022-09-06T12:40:52.406Z,2.30
2022-09-06T12:43:24.281Z,1.80
2022-09-06T12:45:55.805Z,1.70
2022-09-06T12:48:27.816Z,1.42
2022-09-06T12:50:59.489Z,1.52
2022-09-06T12:53:31.979Z,1.70
2022-09-06T12:56:04.299Z,1.73
2022-09-06T12:58:35.852Z,1.70
2022-09-06T13:01:07.751Z,1.58
2022-09-06T13:03:39.363Z,2.03
2022-09-06T13:06:11.380Z,1.80
2022-09-06T13:08:42.933Z,1.75
2022-09-06T13:11:14.826Z,2.10
2022-09-06T13:13:46.347Z,1.83
2022-09-06T13:16:18.263Z,2.00
2022-09-06T13:18:50.057Z,2.10
2022-09-06T13:21:22.208Z,1.90
2022-09-06T13:23:53.820Z,1.90
2022-09-06T13:26:25.717Z,1.70
2022-09-06T13:28:57.272Z,2.17
2022-09-06T13:31:29.767Z,1.77
2022-09-06T13:36:33.217Z,2.00
2022-09-06T13:39:04.791Z,1.95
2022-09-06T13:41:36.650Z,2.00
2022-09-06T13:44:08.216Z,1.80
2022-09-06T13:46:40.168Z,2.10
2022-09-06T13:49:11.787Z,2.38
2022-09-06T13:51:43.822Z,2.22
2022-09-06T13:54:15.658Z,2.30
2022-09-06T13:56:48.811Z,2.15
2022-09-06T13:59:20.338Z,2.50
2022-09-06T14:01:52.260Z,2.05
2022-09-06T14:04:24.044Z,2.33
2022-09-06T14:06:55.874Z,2.43
2022-09-06T14:09:27.717Z,1.83
2022-09-06T14:11:59.360Z,2.00
2022-09-06T14:14:31.388Z,2.00
2022-09-06T14:17:02.965Z,2.28
2022-09-06T14:19:34.985Z,1.85
2022-09-06T14:22:07.290Z,1.85
2022-09-06T14:24:39.553Z,1.80
2022-09-06T14:27:11.090Z,1.60
2022-09-06T14:29:43.041Z,1.60
2022-09-06T14:32:17.248Z,1.98
2022-09-06T14:34:51.161Z,1.92
2022-09-06T14:37:22.706Z,1.80
2022-09-06T14:39:54.827Z,1.88
2022-09-06T14:42:28.300Z,2.10
2022-09-06T14:44:59.869Z,1.80
2022-09-06T14:47:31.879Z,2.08
2022-09-06T14:50:03.843Z,2.08
2022-09-06T14:52:35.353Z,1.92
2022-09-06T14:55:07.260Z,2.10
2022-09-06T14:57:38.809Z,2.08
2022-09-06T15:00:11.029Z,1.40
2022-09-06T15:02:44.063Z,1.80
2022-09-06T15:05:15.702Z,1.67
2022-09-06T15:07:47.707Z,1.90
2022-09-06T15:10:19.682Z,1.92
2022-09-06T15:12:51.383Z,2.03
2022-09-06T15:15:24.121Z,2.10
2022-09-06T15:17:55.737Z,1.58
2022-09-06T15:20:27.621Z,2.00
2022-09-06T15:23:15.178Z,1.98
2022-09-06T15:25:51.044Z,1.63
2022-09-06T15:28:22.618Z,1.65
2022-09-06T15:30:54.998Z,1.60
2022-09-06T15:33:26.634Z,1.63
2022-09-06T15:35:58.578Z,1.63
2022-09-06T15:38:30.123Z,1.60
2022-09-06T15:41:07.347Z,1.80
2022-09-06T15:43:41.356Z,2.17
2022-09-06T15:46:12.902Z,1.80
2022-09-06T15:48:44.791Z,1.90
2022-09-06T15:51:16.313Z,1.70
2022-09-06T15:53:48.161Z,1.73
2022-09-06T15:56:19.696Z,1.93
2022-09-06T15:58:51.277Z,1.80
2022-09-06T16:01:22.851Z,1.65
2022-09-06T16:03:54.781Z,1.73
2022-09-06T16:06:27.250Z,1.60
2022-09-06T16:09:00.991Z,1.65
2022-09-06T16:11:36.816Z,1.60
2022-09-06T16:14:08.924Z,1.60
2022-09-06T16:16:41.054Z,1.85
2022-09-06T16:19:13.092Z,1.58
2022-09-06T16:21:44.680Z,2.03
2022-09-06T16:24:16.657Z,1.75
2022-09-06T16:26:48.260Z,1.43
2022-09-06T16:29:20.668Z,1.75
2022-09-06T16:31:59.418Z,1.65
2022-09-06T16:34:31.050Z,1.75
2022-09-06T16:37:07.776Z,1.60
2022-09-06T16:39:39.458Z,1.80
2022-09-06T16:42:12.494Z,1.67
2022-09-06T16:44:44.354Z,1.38
2022-09-06T16:47:16.800Z,1.83
2022-09-06T16:49:49.004Z,1.70
2022-09-06T16:52:20.551Z,1.52
2022-09-06T16:54:52.590Z,1.50
2022-09-06T16:57:24.840Z,1.33
2022-09-06T16:59:56.745Z,1.67
2022-09-06T17:02:28.350Z,1.40
2022-09-06T17:05:00.268Z,1.45
2022-09-06T17:07:31.840Z,1.52
2022-09-06T17:10:03.691Z,1.20
2022-09-06T17:12:35.270Z,1.50
2022-09-06T17:15:07.128Z,1.05
2022-09-06T17:17:38.914Z,1.60
2022-09-06T17:20:10.842Z,1.33
2022-09-06T17:22:42.352Z,1.40
2022-09-06T17:25:15.083Z,1.70
2022-09-06T17:27:46.628Z,1.60
2022-09-06T17:30:18.684Z,1.33
2022-09-06T17:32:50.204Z,1.93
2022-09-06T17:35:22.318Z,1.30
2022-09-06T17:37:53.825Z,1.30
2022-09-06T17:40:25.632Z,1.25
2022-09-06T17:42:57.158Z,1.60
2022-09-06T17:45:29.304Z,1.10
2022-09-06T17:48:00.854Z,1.20
2022-09-06T17:50:32.664Z,1.08
2022-09-06T17:53:04.457Z,1.60
2022-09-06T17:55:36.231Z,1.52
2022-09-06T17:58:08.340Z,1.33
2022-09-06T18:00:40.614Z,1.80
2022-09-06T18:03:12.440Z,1.40
2022-09-06T18:05:45.689Z,1.58
2022-09-06T18:08:17.238Z,1.55
2022-09-06T18:10:49.154Z,1.40
2022-09-06T18:13:20.774Z,1.30
2022-09-06T18:15:52.387Z,1.33
2022-09-06T18:18:23.928Z,1.45
2022-09-06T18:20:55.493Z,1.33
2022-09-06T18:23:27.447Z,1.20
2022-09-06T18:25:59.166Z,0.98
2022-09-06T18:28:31.766Z,1.30
2022-09-06T18:31:03.326Z,1.02
2022-09-06T18:33:35.306Z,1.17
2022-09-06T18:36:06.948Z,1.27
2022-09-06T18:38:38.552Z,1.13
2022-09-06T18:41:10.230Z,1.40
2022-09-06T18:43:43.325Z,1.08
2022-09-06T18:46:16.040Z,1.05
2022-09-06T18:48:48.450Z,1.20
2022-09-06T18:51:20.172Z,1.30
2022-09-06T18:53:58.248Z,1.17
2022-09-06T18:56:29.966Z,0.98
2022-09-06T18:59:02.496Z,1.38
2022-09-06T19:01:35.113Z,1.40
2022-09-06T19:06:38.907Z,1.10
2022-09-06T19:09:10.987Z,1.35
2022-09-06T19:11:43.552Z,1.10
2022-09-06T19:14:15.513Z,1.10
2022-09-06T19:16:48.618Z,1.10
2022-09-06T19:19:23.715Z,1.25
2022-09-06T19:21:55.366Z,1.20
2022-09-06T19:24:27.305Z,1.10
2022-09-06T19:26:58.982Z,1.17
2022-09-06T19:29:32.023Z,0.98
2022-09-06T19:32:04.155Z,1.42
2022-09-06T19:34:36.044Z,1.33
2022-09-06T19:37:07.772Z,1.10
2022-09-06T19:39:39.475Z,1.20
2022-09-06T19:42:11.464Z,1.08
2022-09-06T19:44:44.538Z,1.10
2022-09-06T19:47:16.233Z,1.38
2022-09-06T19:49:48.337Z,1.02
2022-09-06T19:52:22.526Z,1.20
2022-09-06T19:54:54.539Z,1.10
2022-09-06T19:57:26.103Z,1.15
2022-09-06T19:59:58.051Z,1.15
2022-09-06T20:02:29.635Z,1.20
2022-09-06T20:05:02.450Z,1.30
2022-09-06T20:07:34.024Z,1.23
2022-09-06T20:10:06.867Z,1.02
2022-09-06T20:12:39.606Z,1.30
2022-09-06T20:15:11.466Z,1.13
2022-09-06T20:17:42.954Z,1.15
2022-09-06T20:20:15.353Z,0.90
2022-09-06T20:22:47.868Z,1.15
2022-09-06T20:25:19.439Z,1.48
2022-09-06T20:27:51.247Z,1.38
2022-09-06T20:30:22.803Z,1.42
2022-09-06T20:32:54.698Z,1.23
2022-09-06T20:35:26.188Z,1.00
2022-09-06T20:37:58.067Z,0.88
2022-09-06T20:40:29.619Z,1.10
2022-09-06T20:43:02.528Z,1.80
2022-09-06T20:48:05.840Z,1.33
2022-09-06T20:50:37.353Z,1.27
2022-09-06T20:53:08.855Z,1.20
2022-09-06T20:55:40.374Z,0.98
2022-09-06T20:58:12.276Z,1.20
2022-09-06T21:00:43.790Z,1.27
2022-09-06T21:03:15.579Z,1.25
2022-09-06T21:05:47.115Z,0.98
2022-09-06T21:08:19.050Z,1.13
2022-09-06T21:10:50.549Z,0.98
2022-09-06T21:13:22.386Z,1.23
2022-09-06T21:15:54.428Z,0.98
2022-09-06T21:18:26.754Z,1.80
2022-09-06T21:20:58.370Z,1.02
2022-09-06T21:23:29.948Z,1.17
2022-09-06T21:26:01.810Z,1.20
2022-09-06T21:28:33.712Z,1.30
2022-09-06T21:31:05.965Z,1.00
2022-09-06T21:33:38.044Z,1.00
2022-09-06T21:36:09.772Z,1.27
2022-09-06T21:38:42.319Z,1.05
2022-09-06T21:41:13.832Z,1.00
2022-09-06T21:43:45.523Z,1.02
2022-09-06T21:46:17.136Z,1.35
2022-09-06T21:48:48.765Z,1.30
2022-09-06T21:51:20.255Z,1.20
2022-09-06T21:53:51.775Z,1.13
2022-09-06T21:56:23.853Z,1.25
2022-09-06T21:58:55.995Z,1.17
2022-09-06T22:01:27.509Z,1.08
2022-09-06T22:03:59.332Z,0.80
2022-09-06T22:06:30.915Z,1.00
2022-09-06T22:09:02.798Z,1.00
2022-09-06T22:11:34.362Z,1.15
2022-09-06T22:14:06.213Z,1.02
2022-09-06T22:16:37.775Z,1.48
2022-09-06T22:19:10.025Z,0.82
2022-09-06T22:21:41.592Z,0.70
2022-09-06T22:24:13.220Z,1.20
2022-09-06T22:26:45.499Z,0.80
2022-09-06T22:29:17.102Z,0.90
2022-09-06T22:31:48.661Z,0.80
2022-09-06T22:34:20.536Z,0.80
2022-09-06T22:36:52.032Z,0.93
2022-09-06T22:39:23.933Z,1.25
2022-09-06T22:41:55.551Z,1.00
2022-09-06T22:44:27.636Z,1.20
2022-09-06T22:46:59.194Z,1.13
2022-09-06T22:49:31.179Z,1.20
2022-09-06T22:52:02.698Z,1.00
2022-09-06T22:54:34.679Z,1.00
2022-09-06T22:57:06.158Z,0.70
2022-09-06T22:59:37.974Z,0.90
2022-09-06T23:02:09.472Z,0.75
2022-09-06T23:04:41.293Z,0.77
2022-09-06T23:07:13.231Z,0.77
2022-09-06T23:09:45.072Z,1.00
2022-09-06T23:12:16.876Z,0.98
2022-09-06T23:14:48.446Z,1.27
2022-09-06T23:17:20.397Z,1.10
2022-09-06T23:19:51.932Z,0.77
2022-09-06T23:22:23.794Z,1.10
2022-09-06T23:24:55.297Z,0.90
2022-09-06T23:27:27.085Z,0.85
2022-09-06T23:29:58.977Z,0.80
2022-09-06T23:32:30.495Z,0.80
2022-09-06T23:35:01.994Z,0.80
2022-09-06T23:37:33.983Z,0.90
2022-09-06T23:40:08.966Z,1.02
2022-09-06T23:42:41.269Z,0.65
2022-09-06T23:45:12.794Z,1.02
2022-09-06T23:47:44.607Z,0.80
2022-09-06T23:50:16.106Z,0.93
2022-09-06T23:52:47.672Z,1.10
2022-09-06T23:55:19.180Z,1.10
2022-09-06T23:57:51.111Z,0.75
